Time;durP1;ratioP1;P1;durP2;ratioP2;P2;SDS_P1;SDS_P2;PMS_P1;PMS_P2;Temp;Humidity;BMP_temperature;BMP_pressure;BME280_temperature;BME280_humidity;BME280_pressure;Samples;Min_cycle;Max_cycle;Signal;HPM_P1;HPM_P2
2021/01/10 00:00:30;;;;;;;63.92;34.23;;;;;;;1.98;72.06;100898.48;2059928;83;28846;-59
2021/01/10 00:03:33;;;;;;;56.80;31.77;;;;;;;1.96;72.07;100899.81;2011022;86;27874;-66
2021/01/10 00:06:36;;;;;;;53.68;28.57;;;;;;;1.94;72.17;100892.76;2009260;86;33904;-66
2021/01/10 00:09:39;;;;;;;56.18;30.60;;;;;;;1.96;72.37;100902.88;1992346;88;30086;-67
2021/01/10 00:12:42;;;;;;;49.90;29.30;;;;;;;2.00;72.38;100896.70;1974684;89;27722;-68
2021/01/10 00:15:44;;;;;;;53.80;27.93;;;;;;;2.04;72.33;100897.14;1997138;87;28831;-66
2021/01/10 00:18:47;;;;;;;47.25;26.77;;;;;;;2.09;72.39;100900.61;2024116;85;31958;-68
2021/01/10 00:21:49;;;;;;;50.20;27.58;;;;;;;2.13;72.44;100902.36;2052247;85;33100;-67
2021/01/10 00:24:51;;;;;;;45.05;25.50;;;;;;;2.19;72.39;100896.62;2095070;84;29388;-67
2021/01/10 00:27:53;;;;;;;43.08;25.27;;;;;;;2.22;72.36;100897.93;2097282;84;27783;-68
2021/01/10 00:30:55;;;;;;;42.98;25.30;;;;;;;2.24;72.40;100900.09;2114689;83;29813;-67
2021/01/10 00:33:58;;;;;;;50.43;27.52;;;;;;;2.26;72.32;100894.36;2099776;83;31679;-67
2021/01/10 00:37:00;;;;;;;44.10;25.02;;;;;;;2.26;72.31;100899.22;2093496;83;32941;-67
2021/01/10 00:40:02;;;;;;;42.80;23.20;;;;;;;2.24;72.08;100898.34;2050249;84;28831;-66
2021/01/10 00:43:04;;;;;;;46.42;22.90;;;;;;;2.23;72.05;100899.23;2075141;82;27776;-66
2021/01/10 00:46:07;;;;;;;41.75;22.70;;;;;;;2.24;71.96;100895.70;2085964;84;28840;-67
2021/01/10 00:49:09;;;;;;;43.10;22.80;;;;;;;2.24;71.97;100899.67;2049785;84;31199;-68
2021/01/10 00:52:12;;;;;;;44.93;23.45;;;;;;;2.27;72.03;100898.77;2089461;84;32949;-66
2021/01/10 00:55:13;;;;;;;39.38;22.87;;;;;;;2.30;72.08;100905.36;2060642;84;28991;-66
2021/01/10 00:58:16;;;;;;;42.38;22.87;;;;;;;2.32;72.00;100911.52;2067867;84;27680;-67
2021/01/10 01:01:18;;;;;;;44.18;23.32;;;;;;;2.33;71.90;100904.45;2099731;84;29772;-67
2021/01/10 01:04:21;;;;;;;38.53;21.87;;;;;;;2.33;71.93;100909.73;2124053;82;30606;-67
2021/01/10 01:07:23;;;;;;;44.70;24.45;;;;;;;2.32;72.00;100910.66;2085068;83;33112;-66
2021/01/10 01:10:25;;;;;;;39.18;23.02;;;;;;;2.31;72.16;100919.47;2114141;83;29237;-70
2021/01/10 01:13:27;;;;;;;42.98;24.43;;;;;;;2.31;72.30;100914.19;2091906;83;27686;-67
2021/01/10 01:16:29;;;;;;;45.58;25.10;;;;;;;2.29;72.44;100912.85;2090916;83;28623;-67
2021/01/10 01:19:31;;;;;;;44.88;24.57;;;;;;;2.30;72.53;100915.07;2091373;83;32164;-66
2021/01/10 01:22:33;;;;;;;49.42;27.93;;;;;;;2.32;72.57;100919.45;2068575;83;32922;-68
2021/01/10 01:25:36;;;;;;;47.17;28.73;;;;;;;2.34;72.55;100918.11;2137754;81;29160;-69
2021/01/10 01:28:38;;;;;;;37.80;22.95;;;;;;;2.35;72.57;100919.44;2086876;83;27648;-67
2021/01/10 01:31:40;;;;;;;47.88;26.95;;;;;;;2.34;72.52;100920.75;2053958;83;28713;-67
2021/01/10 01:34:42;;;;;;;60.95;32.42;;;;;;;2.36;72.64;100924.27;2089672;83;31616;-67
2021/01/10 01:37:44;;;;;;;52.25;29.12;;;;;;;2.39;72.73;100928.22;2091522;83;33126;-67
2021/01/10 01:41:06;;;;;;;64.32;32.95;;;;;;;2.40;72.76;100924.70;2092346;83;29964;-71
2021/01/10 01:44:07;;;;;;;52.70;29.77;;;;;;;2.40;72.77;100928.20;2134717;82;27865;-66
2021/01/10 01:47:09;;;;;;;46.98;27.05;;;;;;;2.40;72.68;100922.91;2115795;83;28848;-67
2021/01/10 01:50:11;;;;;;;55.35;32.23;;;;;;;2.39;72.76;100917.65;2094196;83;31088;-66
2021/01/10 01:53:14;;;;;;;64.25;33.60;;;;;;;2.36;72.80;100915.91;2080234;84;33986;-67
2021/01/10 01:56:16;;;;;;;56.73;31.30;;;;;;;2.34;72.75;100914.14;2126263;83;29267;-68
2021/01/10 01:59:18;;;;;;;42.95;23.00;;;;;;;2.33;72.80;100916.34;2128242;83;27732;-68
2021/01/10 02:02:20;;;;;;;48.38;24.72;;;;;;;2.32;72.78;100916.81;2132052;83;29549;-68
2021/01/10 02:05:23;;;;;;;47.27;26.30;;;;;;;2.35;72.89;100915.48;2077863;83;31236;-73
2021/01/10 02:08:31;;;;;;;45.50;25.32;;;;;;;2.39;72.98;100915.90;2082806;83;32720;-71
2021/01/10 02:11:35;;;;;;;44.85;24.00;;;;;;;2.42;72.93;100914.99;2051881;83;28994;-73
2021/01/10 02:15:08;;;;;;;46.60;23.05;;;;;;;2.45;72.82;100918.05;2129470;83;27629;-70
2021/01/10 02:18:13;;;;;;;45.67;24.00;;;;;;;2.46;72.80;100922.03;2107428;83;29487;-72
2021/01/10 02:21:16;;;;;;;31.57;18.47;;;;;;;2.42;72.95;100931.72;2131328;82;31859;-67
2021/01/10 02:24:19;;;;;;;43.52;23.98;;;;;;;2.42;72.95;100931.72;2128811;83;34129;-67
2021/01/10 02:27:22;;;;;;;41.83;22.32;;;;;;;2.41;72.74;100929.09;2107196;83;30525;-67
2021/01/10 02:30:25;;;;;;;45.00;24.10;;;;;;;2.40;72.76;100933.95;2107385;83;28096;-67
2021/01/10 02:33:51;;;;;;;41.92;23.12;;;;;;;2.37;72.77;100936.18;2082290;83;28602;-67
2021/01/10 02:37:23;;;;;;;45.73;25.48;;;;;;;2.35;72.86;100931.77;2081956;83;30310;-72
2021/01/10 02:40:34;;;;;;;40.23;20.88;;;;;;;2.31;72.85;100926.95;2081850;83;33843;-70
2021/01/10 02:43:37;;;;;;;43.68;23.32;;;;;;;2.32;72.95;100927.84;2126910;83;28261;-67
2021/01/10 02:46:41;;;;;;;46.05;23.62;;;;;;;2.32;72.94;100927.38;2129063;83;27750;-69
2021/01/10 02:49:43;;;;;;;53.30;25.85;;;;;;;2.34;73.09;100921.65;2153872;82;28852;-68
2021/01/10 02:52:47;;;;;;;46.45;23.92;;;;;;;2.39;73.20;100928.22;2130615;82;31163;-67
2021/01/10 02:55:49;;;;;;;47.67;26.20;;;;;;;2.42;73.25;100922.47;2107164;83;33101;-70
2021/01/10 02:58:56;;;;;;;49.60;26.50;;;;;;;2.45;73.27;100922.02;2106806;83;29242;-67
2021/01/10 03:02:01;;;;;;;43.42;25.85;;;;;;;2.47;73.33;100920.25;2060147;84;27752;-69
2021/01/10 03:05:09;;;;;;;59.23;30.45;;;;;;;2.47;73.28;100921.57;2082005;83;28607;-68
2021/01/10 03:08:12;;;;;;;52.73;29.00;;;;;;;2.47;73.29;100920.25;2099797;84;31193;-68
2021/01/10 03:11:14;;;;;;;56.18;31.20;;;;;;;2.45;73.22;100919.38;2124135;82;34314;-67
2021/01/10 03:14:16;;;;;;;55.75;30.65;;;;;;;2.43;73.31;100919.39;2147385;82;29870;-68
2021/01/10 03:17:35;;;;;;;49.33;26.00;;;;;;;2.41;73.35;100918.06;2098997;83;27790;-70
2021/01/10 03:20:37;;;;;;;48.78;25.62;;;;;;;2.39;73.34;100916.33;2084115;84;28829;-67
2021/01/10 03:23:39;;;;;;;45.65;24.45;;;;;;;2.39;73.41;100917.65;2093250;84;32135;-69
2021/01/10 03:26:41;;;;;;;46.18;25.17;;;;;;;2.39;73.42;100917.65;2073135;84;33119;-67
2021/01/10 03:29:43;;;;;;;47.98;25.52;;;;;;;2.40;73.43;100911.47;2068451;84;29187;-67
2021/01/10 03:32:46;;;;;;;44.53;24.37;;;;;;;2.42;73.57;100909.70;2118357;83;27272;-72
2021/01/10 03:35:48;;;;;;;44.20;24.43;;;;;;;2.43;73.56;100909.68;2065650;85;29713;-70
2021/01/10 03:38:51;;;;;;;39.60;23.20;;;;;;;2.43;73.36;100911.00;2043314;85;32054;-67
2021/01/10 03:41:52;;;;;;;45.58;25.02;;;;;;;2.43;73.45;100911.00;2056686;84;34082;-70
2021/01/10 03:44:54;;;;;;;46.63;24.40;;;;;;;2.41;73.34;100915.42;2099095;84;29176;-68
2021/01/10 03:47:57;;;;;;;45.75;23.67;;;;;;;2.38;73.31;100914.56;2100094;84;27748;-67
2021/01/10 03:50:59;;;;;;;46.00;23.10;;;;;;;2.34;73.36;100912.39;2056415;84;29613;-68
2021/01/10 03:54:01;;;;;;;47.23;25.02;;;;;;;2.32;73.42;100915.95;2075454;84;30974;-71
2021/01/10 03:57:03;;;;;;;45.33;23.22;;;;;;;2.25;73.32;100915.07;2100562;82;32915;-67
2021/01/10 04:00:09;;;;;;;40.60;22.32;;;;;;;2.20;73.42;100913.78;2124427;82;28966;-67
2021/01/10 04:03:11;;;;;;;43.10;21.82;;;;;;;2.19;73.50;100919.09;2118280;82;27615;-70
2021/01/10 04:06:13;;;;;;;41.73;23.50;;;;;;;2.18;73.54;100922.16;2052556;85;29605;-69
2021/01/10 04:09:15;;;;;;;43.48;23.45;;;;;;;2.20;73.54;100911.14;2093464;84;32227;-67
2021/01/10 04:12:17;;;;;;;45.30;23.73;;;;;;;2.22;73.68;100909.83;2127145;83;33176;-69
2021/01/10 04:15:19;;;;;;;50.33;25.15;;;;;;;2.25;73.80;100908.03;2088549;83;29030;-71
2021/01/10 04:18:21;;;;;;;51.20;24.85;;;;;;;2.29;73.83;100906.25;2086722;83;27832;-68
2021/01/10 04:21:27;;;;;;;48.30;24.47;;;;;;;2.33;73.76;100913.70;2092869;83;28814;-70
2021/01/10 04:24:29;;;;;;;49.05;24.75;;;;;;;2.33;73.78;100914.60;2136903;83;30944;-69
2021/01/10 04:27:31;;;;;;;50.00;26.20;;;;;;;2.33;73.72;100911.06;2083210;83;33184;-69
2021/01/10 04:30:33;;;;;;;47.23;25.97;;;;;;;2.33;73.72;100917.67;2052863;83;29228;-71
2021/01/10 04:33:35;;;;;;;49.13;26.07;;;;;;;2.32;73.80;100918.59;2090113;83;27763;-68
2021/01/10 04:36:37;;;;;;;51.83;26.30;;;;;;;2.32;73.87;100919.91;2052984;83;28629;-70
2021/01/10 04:39:39;;;;;;;43.35;23.73;;;;;;;2.31;73.79;100919.47;2090990;83;31938;-72
2021/01/10 04:42:41;;;;;;;43.83;23.62;;;;;;;2.31;73.83;100926.08;2111288;83;31833;-69
2021/01/10 04:45:43;;;;;;;43.63;22.55;;;;;;;2.33;73.94;100929.14;2114088;83;29299;-70
2021/01/10 04:48:46;;;;;;;55.70;29.45;;;;;;;2.38;74.02;100925.14;2037355;84;27733;-69
2021/01/10 04:51:49;;;;;;;45.45;25.30;;;;;;;2.42;74.08;100923.79;2088530;83;29896;-69
2021/01/10 04:54:52;;;;;;;45.67;25.55;;;;;;;2.49;74.16;100927.73;2092589;83;30813;-68
2021/01/10 04:58:01;;;;;;;42.23;23.90;;;;;;;2.54;74.14;100929.45;2140104;83;32908;-69
2021/01/10 05:04:18;;;;;;;45.67;23.20;;;;;;;2.66;74.16;100931.58;2248095;78;27663;-68
2021/01/10 05:07:21;;;;;;;49.65;24.27;;;;;;;2.63;74.10;100940.42;2193526;79;27714;-68
2021/01/10 05:10:23;;;;;;;40.45;23.47;;;;;;;2.64;74.08;100936.89;2168979;79;28602;-68
2021/01/10 05:13:25;;;;;;;49.63;25.82;;;;;;;2.65;74.09;100943.08;2151169;79;31160;-68
2021/01/10 05:16:33;;;;;;;45.70;23.20;;;;;;;2.64;74.16;100938.67;2190712;79;33156;-68
2021/01/10 05:19:35;;;;;;;43.38;23.02;;;;;;;2.62;74.09;100936.48;2132244;81;28694;-67
2021/01/10 05:22:40;;;;;;;40.30;21.55;;;;;;;2.61;74.15;100933.39;2113948;81;28214;-71
2021/01/10 05:25:42;;;;;;;38.00;20.32;;;;;;;2.63;74.13;100930.30;2129732;79;29808;-67
2021/01/10 05:28:45;;;;;;;42.93;23.42;;;;;;;2.65;74.25;100932.49;2109867;81;31170;-67
2021/01/10 05:31:47;;;;;;;49.10;26.10;;;;;;;2.68;74.25;100940.38;2170053;79;34038;-68
2021/01/10 05:35:00;;;;;;;48.98;26.07;;;;;;;2.71;74.21;100939.05;2182970;79;29607;-68
2021/01/10 05:38:04;;;;;;;47.85;25.85;;;;;;;2.72;74.23;100936.84;2156914;79;27834;-68
2021/01/10 05:41:10;;;;;;;48.90;25.77;;;;;;;2.75;74.19;100943.44;2135340;79;28835;-71
2021/01/10 05:44:12;;;;;;;49.30;25.90;;;;;;;2.76;74.17;100945.19;2228468;79;31120;-68
2021/01/10 05:47:17;;;;;;;46.28;25.25;;;;;;;2.76;74.18;100946.52;2199014;79;33182;-67
2021/01/10 05:50:19;;;;;;;;;;;;;;;2.75;74.14;100950.05;2169648;79;28866;-68
2021/01/10 05:53:24;;;;;;;43.17;22.60;;;;;;;2.74;74.22;100950.94;2225719;79;27766;-67
2021/01/10 05:56:26;;;;;;;44.33;22.82;;;;;;;2.71;74.25;100958.89;2194659;80;28629;-67
2021/01/10 05:59:30;;;;;;;41.08;21.62;;;;;;;2.72;74.30;100961.97;2144610;80;31945;-66
2021/01/10 06:02:35;;;;;;;42.00;21.80;;;;;;;2.73;74.32;100962.41;2183492;81;33346;-67
2021/01/10 06:05:37;;;;;;;38.42;22.55;;;;;;;2.77;74.31;100966.80;2141302;81;28652;-68
2021/01/10 06:08:40;;;;;;;44.55;23.77;;;;;;;2.80;74.37;100966.78;2167351;81;27648;-67
2021/01/10 06:11:42;;;;;;;41.53;22.55;;;;;;;2.82;74.36;100963.66;2197112;80;28826;-67
2021/01/10 06:14:44;;;;;;;37.85;21.75;;;;;;;2.85;74.39;100972.03;2187847;80;32183;-69
2021/01/10 06:17:50;;;;;;;41.95;22.95;;;;;;;2.85;74.20;100962.77;2165842;80;32893;-67
2021/01/10 06:20:54;;;;;;;34.30;19.95;;;;;;;2.85;74.18;100969.39;2217196;80;29076;-68
2021/01/10 06:23:59;;;;;;;39.83;22.25;;;;;;;2.84;74.16;100968.95;2173801;80;27625;-66
2021/01/10 06:27:07;;;;;;;37.10;20.90;;;;;;;2.82;74.13;100968.94;2125082;81;28630;-67
2021/01/10 06:30:11;;;;;;;36.05;19.65;;;;;;;2.81;74.27;100972.94;2173210;80;31339;-69
2021/01/10 06:33:32;;;;;;;35.92;19.42;;;;;;;2.80;74.22;100977.36;2118751;81;33903;-67
2021/01/10 06:36:42;;;;;;;36.45;18.98;;;;;;;2.79;74.27;100974.28;2125406;81;28936;-67
2021/01/10 06:39:48;;;;;;;30.68;17.92;;;;;;;2.79;74.31;100977.36;2148452;81;27597;-67
2021/01/10 06:42:52;;;;;;;37.05;20.57;;;;;;;2.81;74.33;100977.80;2153664;80;29741;-67
2021/01/10 06:45:54;;;;;;;35.60;20.37;;;;;;;2.83;74.30;100981.29;2200071;80;31140;-67
2021/01/10 06:48:57;;;;;;;39.90;20.95;;;;;;;2.85;74.29;100981.30;2157723;81;32751;-67
2021/01/10 06:52:03;;;;;;;44.03;22.87;;;;;;;2.83;74.20;100983.07;2159626;81;28977;-67
2021/01/10 06:55:07;;;;;;;43.20;22.50;;;;;;;2.81;74.14;100983.52;2123432;81;27712;-67
2021/01/10 06:58:10;;;;;;;41.98;22.52;;;;;;;2.78;74.17;100984.86;2125172;80;29660;-66
2021/01/10 07:01:13;;;;;;;42.03;22.17;;;;;;;2.75;74.19;100988.41;2181781;80;31925;-67
2021/01/10 07:04:37;;;;;;;46.75;24.77;;;;;;;2.73;74.29;100990.19;2159585;80;34295;-67
2021/01/10 07:07:41;;;;;;;45.83;24.45;;;;;;;2.71;74.26;100990.63;2032416;86;28230;-67
2021/01/10 07:10:43;;;;;;;43.80;22.48;;;;;;;2.68;74.40;100990.64;1969555;86;27746;-67
2021/01/10 07:13:45;;;;;;;43.05;22.85;;;;;;;2.68;74.52;100993.30;1990513;85;29414;-67
2021/01/10 07:16:47;;;;;;;41.73;20.35;;;;;;;2.69;74.55;100992.41;2041105;86;31298;-67
2021/01/10 07:19:50;;;;;;;41.83;21.17;;;;;;;2.72;74.63;100997.26;2044168;87;33012;-67
2021/01/10 07:22:52;;;;;;;41.28;22.95;;;;;;;2.77;74.68;100996.33;2006258;86;28667;-68
2021/01/10 07:25:55;;;;;;;40.63;21.27;;;;;;;2.78;74.51;100995.02;2012489;85;27826;-68
2021/01/10 07:28:57;;;;;;;45.10;24.72;;;;;;;2.80;74.55;100997.21;2066177;84;28445;-67
2021/01/10 07:32:07;;;;;;;46.40;26.60;;;;;;;2.83;74.67;101001.59;2059017;84;32281;-67
2021/01/10 07:35:10;;;;;;;45.00;24.52;;;;;;;2.85;74.72;101005.11;2066087;85;32744;-67
2021/01/10 07:38:14;;;;;;;46.20;22.45;;;;;;;2.87;74.73;101005.98;2019311;85;28663;-67
2021/01/10 07:41:28;;;;;;;41.42;21.73;;;;;;;2.82;74.47;101008.64;2093344;84;27672;-68
2021/01/10 07:44:51;;;;;;;44.63;22.40;;;;;;;2.76;74.45;101006.05;2024819;85;28586;-68
2021/01/10 07:47:54;;;;;;;44.65;21.50;;;;;;;2.74;74.65;101003.85;2021542;87;31058;-68
2021/01/10 07:51:15;;;;;;;40.38;20.15;;;;;;;2.77;74.79;101006.48;2036359;86;33124;-67
2021/01/10 07:54:52;;;;;;;45.87;26.47;;;;;;;2.84;74.97;101002.89;2230644;77;28175;-67
2021/01/10 07:58:12;;;;;;;45.70;23.73;;;;;;;2.98;74.86;101004.14;2180430;80;27675;-70
2021/01/10 08:01:14;;;;;;;47.25;24.02;;;;;;;3.10;74.70;101004.93;2175468;80;28638;-68
2021/01/10 08:04:33;;;;;;;46.28;23.45;;;;;;;3.16;74.75;101007.55;2125537;81;31140;-69
2021/01/10 08:07:37;;;;;;;38.83;20.65;;;;;;;3.18;74.67;101011.92;2141791;80;34229;-68
2021/01/10 08:10:52;;;;;;;45.95;23.90;;;;;;;3.21;74.65;101014.13;2184919;80;29609;-69
2021/01/10 08:13:54;;;;;;;135.15;52.33;;;;;;;3.20;74.59;101018.55;2148261;80;27671;-69
2021/01/10 08:16:56;;;;;;;175.80;73.52;;;;;;;3.17;74.36;101026.05;2102589;83;29034;-71
2021/01/10 08:20:00;;;;;;;84.15;38.73;;;;;;;3.12;74.39;101024.33;2093032;84;30953;-68
2021/01/10 08:23:03;;;;;;;53.73;27.50;;;;;;;3.08;74.37;101026.56;2111939;83;33855;-70
2021/01/10 08:26:17;;;;;;;42.33;21.65;;;;;;;3.00;74.39;101023.97;2071113;83;28641;-69
2021/01/10 08:29:22;;;;;;;52.85;26.62;;;;;;;2.99;74.53;101031.47;2126581;81;27792;-69
2021/01/10 08:32:24;;;;;;;41.10;22.62;;;;;;;2.97;74.59;101030.63;2129662;82;28595;-68
2021/01/10 08:35:26;;;;;;;63.63;32.65;;;;;;;2.95;74.71;101035.91;2137110;83;31160;-70
2021/01/10 08:38:28;;;;;;;52.55;26.57;;;;;;;2.94;74.67;101034.16;2083010;81;33686;-72
2021/01/10 08:41:37;;;;;;;69.50;34.80;;;;;;;2.92;74.71;101035.92;2063972;83;28635;-69
2021/01/10 08:44:41;;;;;;;57.38;30.80;;;;;;;2.92;74.88;101038.57;2081044;81;27773;-68
2021/01/10 08:47:43;;;;;;;58.35;36.93;;;;;;;2.96;74.98;101039.00;2108413;83;27913;-68
2021/01/10 08:50:46;;;;;;;48.10;28.10;;;;;;;3.01;75.06;101034.98;2096772;82;30952;-68
2021/01/10 08:53:48;;;;;;;39.88;21.42;;;;;;;3.06;75.13;101035.84;2123834;83;33278;-69
2021/01/10 08:56:56;;;;;;;35.55;19.73;;;;;;;3.09;74.93;101037.16;2096478;82;28799;-67
2021/01/10 08:59:59;;;;;;;38.65;20.20;;;;;;;3.09;74.85;101039.80;2120640;82;27954;-68
2021/01/10 09:03:18;;;;;;;29.10;15.53;;;;;;;3.11;74.79;101041.10;2128062;82;28926;-66
2021/01/10 09:06:23;;;;;;;33.50;18.12;;;;;;;3.15;74.95;101042.39;2091303;82;31156;-67
2021/01/10 09:09:37;;;;;;;40.60;19.32;;;;;;;3.17;74.65;101040.61;2134552;82;33128;-69
2021/01/10 09:12:50;;;;;;;34.92;17.95;;;;;;;3.20;74.72;101039.73;2110760;82;29903;-66
2021/01/10 09:15:54;;;;;;;46.18;22.95;;;;;;;3.24;74.65;101044.55;2091284;82;28120;-68
2021/01/10 09:18:57;;;;;;;38.53;19.02;;;;;;;3.31;74.85;101045.82;2130625;82;28626;-67
2021/01/10 09:22:01;;;;;;;31.27;16.45;;;;;;;3.38;74.79;101043.14;2135803;82;31170;-69
2021/01/10 09:25:12;;;;;;;26.33;16.87;;;;;;;3.40;74.53;101050.59;2142040;82;34370;-68
2021/01/10 09:28:22;;;;;;;39.55;20.62;;;;;;;3.45;74.60;101051.45;2122786;82;28873;-68
2021/01/10 09:31:47;;;;;;;25.92;13.48;;;;;;;3.46;74.61;101051.88;2025648;86;27852;-68
2021/01/10 09:34:57;;;;;;;31.65;17.23;;;;;;;3.47;74.48;101057.19;2027075;86;29556;-70
2021/01/10 09:38:14;;;;;;;37.98;23.47;;;;;;;3.49;74.60;101054.05;2013361;86;31231;-67
2021/01/10 09:41:16;;;;;;;24.80;12.70;;;;;;;3.52;74.38;101048.30;1998861;86;33165;-68
2021/01/10 09:44:21;;;;;;;27.85;14.35;;;;;;;3.52;74.19;101054.92;2003145;86;28868;-66
2021/01/10 09:47:36;;;;;;;28.00;15.20;;;;;;;3.51;74.30;101051.41;2009227;86;27767;-70
2021/01/10 09:50:48;;;;;;;31.53;16.70;;;;;;;3.57;74.27;101050.48;2297341;77;27753;-67
2021/01/10 09:53:51;;;;;;;56.95;31.15;;;;;;;3.54;74.19;101054.47;2257183;78;27628;-68
2021/01/10 09:57:18;;;;;;;43.30;23.90;;;;;;;3.51;74.08;101051.41;2204654;78;28871;-69
2021/01/10 10:00:21;;;;;;;75.78;30.50;;;;;;;3.48;74.04;101054.08;2034199;87;31806;-68
2021/01/10 10:03:25;;;;;;;25.90;15.93;;;;;;;3.49;74.28;101051.41;2020758;85;33656;-63
2021/01/10 10:06:27;;;;;;;27.05;16.82;;;;;;;3.49;74.32;101054.05;2042535;86;29522;-67
2021/01/10 10:09:53;;;;;;;27.17;17.60;;;;;;;3.50;74.15;101050.52;2020772;86;28205;-62
2021/01/10 10:13:00;;;;;;;;;;;;;;;3.45;73.89;101048.38;1992427;87;28645;-71
2021/01/10 10:16:07;;;;;;;20.85;13.25;;;;;;;3.39;74.01;101052.84;2066527;85;30956;-64
2021/01/10 10:19:08;;;;;;;;;;;;;;;3.37;74.09;101053.30;2041807;86;34929;-64
2021/01/10 10:22:31;;;;;;;31.93;21.45;;;;;;;3.37;74.26;101050.64;1999622;85;29630;-73
2021/01/10 10:25:49;;;;;;;21.60;13.23;;;;;;;3.42;74.15;101043.09;2312193;76;27705;-65
2021/01/10 10:28:51;;;;;;;29.77;18.82;;;;;;;3.40;74.06;101040.90;2206097;78;27752;-70
2021/01/10 10:31:54;;;;;;;31.82;19.32;;;;;;;3.40;74.05;101036.03;2205850;78;29271;-64
2021/01/10 10:34:56;;;;;;;54.95;30.55;;;;;;;3.43;74.16;101034.26;2228699;77;31937;-64
2021/01/10 10:37:58;;;;;;;23.60;15.45;;;;;;;3.47;74.20;101032.45;2208480;78;32920;-65
2021/01/10 10:41:01;;;;;;;31.40;18.73;;;;;;;3.50;74.07;101034.63;2214507;77;29324;-66
2021/01/10 10:44:05;;;;;;;26.73;15.00;;;;;;;3.53;74.06;101041.69;2231646;77;27669;-64
2021/01/10 10:47:13;;;;;;;24.57;15.75;;;;;;;3.55;74.03;101037.69;2183811;78;29352;-63
2021/01/10 10:50:15;;;;;;;29.75;19.37;;;;;;;3.54;73.91;101039.47;2242857;77;32107;-65
2021/01/10 10:53:17;;;;;;;26.55;17.82;;;;;;;3.53;74.05;101036.81;2194783;77;33835;-63
2021/01/10 10:56:19;;;;;;;24.25;15.80;;;;;;;3.55;74.01;101031.06;2183154;77;28686;-64
2021/01/10 10:59:22;;;;;;;24.45;17.52;;;;;;;3.52;73.84;101034.63;2206283;78;27712;-68
2021/01/10 11:02:24;;;;;;;25.57;16.50;;;;;;;3.47;73.86;101034.67;2223324;77;28810;-64
2021/01/10 11:05:26;;;;;;;24.18;15.40;;;;;;;3.43;73.77;101029.39;2214262;78;31717;-65
2021/01/10 11:08:28;;;;;;;25.15;14.35;;;;;;;3.39;73.86;101029.00;2199075;77;32867;-64
2021/01/10 11:11:45;;;;;;;25.90;15.13;;;;;;;3.38;73.99;101021.95;2272024;77;29796;-68
2021/01/10 11:14:47;;;;;;;27.10;17.82;;;;;;;3.40;74.06;101019.70;2265456;77;27683;-63
2021/01/10 11:17:51;;;;;;;84.60;39.65;;;;;;;3.42;74.02;101019.25;2192744;77;29543;-63
2021/01/10 11:20:53;;;;;;;39.95;25.70;;;;;;;3.44;74.04;101017.47;2199151;77;30924;-63
2021/01/10 11:23:56;;;;;;;45.38;27.05;;;;;;;3.45;74.04;101020.56;2231297;77;34607;-65
2021/01/10 11:26:59;;;;;;;26.60;15.80;;;;;;;3.50;74.21;101016.54;2254186;77;29376;-66
2021/01/10 11:30:01;;;;;;;26.82;17.82;;;;;;;3.50;73.99;101011.24;2214962;77;27703;-66
2021/01/10 11:33:04;;;;;;;29.18;17.52;;;;;;;3.50;73.96;101017.86;2270968;77;28793;-67
2021/01/10 11:36:08;;;;;;;23.35;15.63;;;;;;;3.50;73.95;101016.54;2230152;77;31935;-66
2021/01/10 11:39:11;;;;;;;23.65;15.43;;;;;;;3.49;73.88;101013.00;2245066;77;33100;-67
2021/01/10 11:42:14;;;;;;;18.98;12.25;;;;;;;3.46;73.85;101011.72;2197114;78;28656;-66
2021/01/10 11:45:16;;;;;;;24.43;14.35;;;;;;;3.42;73.76;101013.06;2260953;78;27650;-67
2021/01/10 11:48:18;;;;;;;22.80;13.20;;;;;;;3.39;73.77;101007.81;2206585;78;29044;-64
2021/01/10 11:51:20;;;;;;;28.45;16.90;;;;;;;3.36;73.88;101005.19;2196369;78;31131;-65
2021/01/10 11:54:24;;;;;;;32.25;17.60;;;;;;;3.36;73.83;101006.05;2198045;78;33534;-65
2021/01/10 11:57:26;;;;;;;29.27;17.10;;;;;;;3.36;73.89;101006.52;2252847;77;30178;-65
2021/01/10 12:00:28;;;;;;;24.40;14.98;;;;;;;3.37;73.97;101008.27;2245057;77;27789;-65
2021/01/10 12:03:30;;;;;;;21.25;13.90;;;;;;;3.37;73.93;101006.48;2235057;78;28389;-66
2021/01/10 12:06:34;;;;;;;28.98;18.15;;;;;;;3.36;74.00;101004.73;2203542;78;32063;-67
2021/01/10 12:09:37;;;;;;;26.85;15.65;;;;;;;3.35;73.98;101009.59;2226523;77;33091;-65
2021/01/10 12:12:39;;;;;;;25.17;16.12;;;;;;;3.31;73.98;101006.56;2218049;78;28904;-66
2021/01/10 12:15:43;;;;;;;28.20;17.23;;;;;;;3.27;74.04;101006.14;2171380;81;27623;-66
2021/01/10 12:18:46;;;;;;;29.43;17.47;;;;;;;3.24;74.24;101007.02;2127596;81;28847;-67
2021/01/10 12:21:48;;;;;;;37.75;21.35;;;;;;;3.21;74.18;100999.56;2150399;80;31774;-66
2021/01/10 12:24:51;;;;;;;39.73;21.80;;;;;;;3.18;74.33;101003.98;2105419;80;33856;-67
2021/01/10 12:27:53;;;;;;;44.70;23.05;;;;;;;3.18;74.42;100992.06;2107273;80;28636;-67
2021/01/10 12:30:55;;;;;;;49.13;25.30;;;;;;;3.20;74.55;101001.34;2109302;80;27676;-70
2021/01/10 12:33:58;;;;;;;31.25;19.87;;;;;;;3.21;74.60;100997.80;2111604;81;28344;-68
2021/01/10 12:37:00;;;;;;;44.13;24.02;;;;;;;3.20;74.67;100997.38;2134398;80;31175;-67
2021/01/10 12:40:05;;;;;;;37.58;23.83;;;;;;;3.21;74.69;100996.91;2132809;81;33757;-70
2021/01/10 12:43:07;;;;;;;74.00;33.63;;;;;;;3.24;74.79;100995.11;2152725;81;28986;-67
2021/01/10 12:46:10;;;;;;;101.18;40.20;;;;;;;3.28;74.80;100999.49;2131663;81;27706;-71
2021/01/10 12:49:12;;;;;;;87.65;37.23;;;;;;;3.27;74.77;100998.20;2138602;80;28841;-68
2021/01/10 12:52:14;;;;;;;59.85;30.12;;;;;;;3.26;74.75;100995.12;2166961;80;31085;-68
2021/01/10 12:55:17;;;;;;;51.60;28.47;;;;;;;3.25;74.80;100994.68;2189124;80;32935;-66
2021/01/10 12:58:23;;;;;;;67.17;31.68;;;;;;;3.25;74.76;100990.70;2140674;80;29055;-67
2021/01/10 13:01:25;;;;;;;141.95;59.00;;;;;;;3.22;74.71;100990.30;2139846;80;28204;-64
2021/01/10 13:04:28;;;;;;;113.40;46.35;;;;;;;3.21;74.69;100988.54;2118299;80;28859;-61
2021/01/10 13:07:30;;;;;;;89.60;38.02;;;;;;;3.23;74.87;100989.84;2139095;81;30909;-68
2021/01/10 13:10:35;;;;;;;103.55;49.65;;;;;;;3.28;74.93;100992.02;2105921;81;32942;-68
2021/01/10 13:13:37;;;;;;;70.65;34.45;;;;;;;3.34;74.97;100994.16;2149777;80;29556;-65
2021/01/10 13:16:39;;;;;;;85.62;34.45;;;;;;;3.35;74.78;100992.38;2130555;81;27616;-66
2021/01/10 13:19:43;;;;;;;73.15;30.48;;;;;;;3.34;74.70;100993.27;2161643;81;28613;-65
2021/01/10 13:22:46;;;;;;;99.60;41.75;;;;;;;3.34;74.78;100992.84;2162809;80;31909;-63
2021/01/10 13:25:50;;;;;;;77.90;35.40;;;;;;;3.34;74.77;100995.91;2153056;81;33144;-63
2021/01/10 13:28:52;;;;;;;96.32;38.95;;;;;;;3.33;74.76;100992.41;2106599;82;29612;-64
2021/01/10 13:31:56;;;;;;;96.60;41.00;;;;;;;3.32;74.74;101000.34;2090003;84;27729;-64
2021/01/10 13:34:59;;;;;;;77.60;36.60;;;;;;;3.29;74.78;100999.06;2091970;83;30196;-65
2021/01/10 13:38:01;;;;;;;50.28;23.77;;;;;;;3.25;74.88;101003.48;2108159;81;31177;-63
2021/01/10 13:41:04;;;;;;;34.92;22.00;;;;;;;3.22;74.81;101004.86;2083868;81;32931;-65
2021/01/10 13:44:07;;;;;;;39.03;22.93;;;;;;;3.20;74.78;101005.31;2080206;82;29347;-64
2021/01/10 13:47:10;;;;;;;59.50;31.30;;;;;;;3.18;74.92;101005.77;2163470;81;27716;-64
2021/01/10 13:50:13;;;;;;;46.10;25.17;;;;;;;3.17;74.95;101001.36;2154806;81;28932;-63
2021/01/10 13:53:15;;;;;;;44.42;22.73;;;;;;;3.17;74.93;101012.81;2087158;83;30939;-62
2021/01/10 13:56:23;;;;;;;44.38;23.20;;;;;;;3.12;74.77;101013.31;2127250;81;32904;-64
2021/01/10 13:59:26;;;;;;;41.68;22.45;;;;;;;3.06;74.84;101018.64;2081818;82;28674;-64
2021/01/10 14:02:29;;;;;;;34.30;20.68;;;;;;;3.00;74.91;101019.99;2099301;81;27703;-64
2021/01/10 14:05:32;;;;;;;40.48;23.62;;;;;;;2.95;75.02;101021.36;2103813;82;28832;-64
2021/01/10 14:08:35;;;;;;;44.05;25.10;;;;;;;2.92;75.07;101019.18;2104333;82;31915;-65
2021/01/10 14:11:42;;;;;;;43.87;24.90;;;;;;;2.88;75.11;101022.30;2124318;81;33332;-64